createdAt,value
2019-05-18T00:01:50.433Z,99.90
2019-05-18T00:04:20.868Z,99.90
2019-05-18T00:06:51.378Z,99.90
2019-05-18T00:09:22.439Z,99.90
2019-05-18T00:11:53.148Z,99.90
2019-05-18T00:14:23.544Z,99.90
2019-05-18T00:16:54.006Z,99.90
2019-05-18T00:19:24.545Z,99.90
2019-05-18T00:21:55.159Z,99.90
2019-05-18T00:24:25.600Z,99.90
2019-05-18T00:26:56.014Z,99.90
2019-05-18T00:29:26.480Z,99.90
2019-05-18T00:31:56.967Z,99.90
2019-05-18T00:34:27.434Z,99.90
2019-05-18T00:36:57.851Z,99.90
2019-05-18T00:39:28.472Z,99.90
2019-05-18T00:41:58.957Z,99.90
2019-05-18T00:44:29.495Z,99.90
2019-05-18T00:46:59.961Z,99.90
2019-05-18T00:49:30.455Z,99.90
2019-05-18T00:52:00.979Z,99.90
2019-05-18T00:54:31.435Z,99.90
2019-05-18T00:57:02.136Z,99.90
2019-05-18T00:59:33.025Z,99.90
2019-05-18T01:02:03.500Z,99.90
2019-05-18T01:04:33.989Z,99.90
2019-05-18T01:07:04.593Z,99.90
2019-05-18T01:09:35.173Z,99.90
2019-05-18T01:12:05.837Z,99.90
2019-05-18T01:14:37.486Z,99.90
2019-05-18T01:17:08.310Z,99.90
2019-05-18T01:19:39.035Z,99.90
2019-05-18T01:22:09.541Z,99.90
2019-05-18T01:24:40.254Z,99.90
2019-05-18T01:27:10.741Z,99.90
2019-05-18T01:29:42.182Z,99.90
2019-05-18T01:32:12.693Z,99.90
2019-05-18T01:34:43.158Z,99.90
2019-05-18T01:37:13.580Z,99.90
2019-05-18T01:39:44.165Z,99.90
2019-05-18T01:42:14.666Z,99.90
2019-05-18T01:44:45.708Z,99.90
2019-05-18T01:47:16.101Z,99.90
2019-05-18T01:49:46.572Z,99.90
2019-05-18T01:52:17.153Z,99.90
2019-05-18T01:54:47.873Z,99.90
2019-05-18T01:57:18.348Z,99.90
2019-05-18T01:59:48.879Z,99.90
2019-05-18T02:02:19.511Z,99.90
2019-05-18T02:04:50.050Z,99.90
2019-05-18T02:07:21.132Z,99.90
2019-05-18T02:09:52.326Z,99.90
2019-05-18T02:12:22.861Z,99.90
2019-05-18T02:14:53.636Z,99.90
2019-05-18T02:17:24.114Z,99.90
2019-05-18T02:19:54.563Z,99.90
2019-05-18T02:22:24.985Z,99.90
2019-05-18T02:24:55.506Z,99.90
2019-05-18T02:27:26.205Z,99.90
2019-05-18T02:29:56.649Z,99.90
2019-05-18T02:32:27.455Z,99.90
2019-05-18T02:34:58.169Z,99.90
2019-05-18T02:37:28.649Z,99.90
2019-05-18T02:39:59.375Z,99.90
2019-05-18T02:42:30.937Z,99.90
2019-05-18T02:45:01.606Z,99.90
2019-05-18T02:47:32.088Z,99.90
2019-05-18T02:50:02.685Z,99.90
2019-05-18T02:52:33.560Z,99.90
2019-05-18T02:55:04.391Z,99.90
2019-05-18T02:57:34.929Z,99.90
2019-05-18T03:00:06.850Z,99.90
2019-05-18T03:02:37.292Z,99.90
2019-05-18T03:05:09.040Z,99.90
2019-05-18T03:07:40.059Z,99.90
2019-05-18T03:10:10.711Z,99.90
2019-05-18T03:12:41.244Z,99.90
2019-05-18T03:15:12.342Z,99.90
2019-05-18T03:17:42.882Z,99.90
2019-05-18T03:20:13.613Z,99.90
2019-05-18T03:22:44.160Z,99.90
2019-05-18T03:25:14.866Z,99.90
2019-05-18T03:27:45.355Z,99.90
2019-05-18T03:30:15.966Z,99.90
2019-05-18T03:32:46.496Z,99.90
2019-05-18T03:35:17.298Z,99.90
2019-05-18T03:37:47.775Z,99.90
2019-05-18T03:40:18.561Z,99.90
2019-05-18T03:42:49.088Z,99.90
2019-05-18T03:45:19.897Z,99.90
2019-05-18T03:47:50.594Z,99.90
2019-05-18T03:50:21.223Z,99.90
2019-05-18T03:52:51.740Z,99.90
2019-05-18T03:55:22.173Z,99.90
2019-05-18T03:57:52.670Z,99.90
2019-05-18T04:00:23.145Z,99.90
2019-05-18T04:02:53.614Z,99.90
2019-05-18T04:05:24.104Z,99.90
2019-05-18T04:07:54.625Z,99.90
2019-05-18T04:10:26.982Z,99.90
2019-05-18T04:12:57.490Z,99.90
2019-05-18T04:15:27.988Z,99.90
2019-05-18T04:17:58.376Z,99.90
2019-05-18T04:20:28.827Z,99.90
2019-05-18T04:23:00.431Z,99.90
2019-05-18T04:25:30.861Z,99.90
2019-05-18T04:28:01.402Z,99.90
2019-05-18T04:30:31.849Z,99.90
2019-05-18T04:33:02.402Z,99.90
2019-05-18T04:35:32.876Z,99.90
2019-05-18T04:38:04.651Z,99.90
2019-05-18T04:40:35.121Z,99.90
2019-05-18T04:43:05.645Z,99.90
2019-05-18T04:45:36.311Z,99.90
2019-05-18T04:48:06.822Z,99.90
2019-05-18T04:50:37.634Z,99.90
2019-05-18T04:53:08.137Z,99.90
2019-05-18T04:55:38.604Z,99.90
2019-05-18T04:58:09.429Z,99.90
2019-05-18T05:00:39.849Z,99.90
2019-05-18T05:03:10.565Z,99.90
2019-05-18T05:05:41.057Z,99.90
2019-05-18T05:08:11.534Z,99.90
2019-05-18T05:10:42.018Z,99.90
2019-05-18T05:13:12.466Z,99.90
2019-05-18T05:15:42.911Z,99.90
2019-05-18T05:18:13.332Z,99.90
2019-05-18T05:20:45.066Z,99.90
2019-05-18T05:23:15.538Z,99.90
2019-05-18T05:25:45.997Z,99.90
2019-05-18T05:28:16.444Z,99.90
2019-05-18T05:30:46.963Z,99.90
2019-05-18T05:33:17.379Z,99.90
2019-05-18T05:35:47.499Z,99.90
2019-05-18T05:38:17.654Z,99.90
2019-05-18T05:40:48.239Z,99.90
2019-05-18T05:43:18.348Z,99.90
2019-05-18T05:45:48.635Z,97.10
2019-05-18T05:48:19.142Z,85.50
2019-05-18T05:50:49.398Z,74.80
2019-05-18T05:53:19.588Z,48.80
2019-05-18T05:55:49.762Z,13.10
2019-05-18T05:58:19.937Z,1.00
2019-05-18T06:00:50.158Z,1.00
2019-05-18T06:03:20.748Z,1.00
2019-05-18T06:05:51.028Z,1.00
2019-05-18T06:08:21.684Z,1.00
2019-05-18T06:10:52.005Z,1.00
2019-05-18T06:13:22.242Z,1.00
2019-05-18T06:15:52.721Z,1.00
2019-05-18T06:18:23.261Z,1.00
2019-05-18T06:20:53.409Z,99.90
2019-05-18T06:23:23.617Z,99.90
2019-05-18T06:25:53.898Z,1.00
2019-05-18T06:28:24.429Z,99.90
2019-05-18T06:30:55.040Z,30.00
2019-05-18T06:33:25.499Z,1.00
2019-05-18T06:35:55.650Z,1.00
2019-05-18T06:38:25.781Z,1.00
2019-05-18T06:40:55.943Z,1.00
2019-05-18T06:43:26.296Z,10.00
2019-05-18T06:45:56.468Z,90.10
2019-05-18T06:48:26.589Z,1.00
2019-05-18T06:51:07.144Z,99.90
2019-05-18T06:53:33.223Z,99.90
2019-05-18T06:56:03.881Z,99.90
2019-05-18T06:58:35.179Z,99.90
2019-05-18T07:01:05.973Z,99.90
2019-05-18T07:03:37.839Z,99.90
2019-05-18T07:06:08.376Z,99.90
2019-05-18T07:08:38.598Z,99.90
2019-05-18T07:11:09.533Z,99.90
2019-05-18T07:13:39.979Z,67.00
2019-05-18T07:16:10.736Z,32.30
2019-05-18T07:18:40.988Z,16.30
2019-05-18T07:21:21.873Z,1.00
2019-05-18T07:23:43.939Z,1.00
2019-05-18T07:26:14.337Z,1.00
2019-05-18T07:28:44.926Z,1.00
2019-05-18T07:31:15.013Z,1.00
2019-05-18T07:33:45.146Z,1.00
2019-05-18T07:36:15.252Z,1.00
2019-05-18T07:38:45.402Z,1.00
2019-05-18T07:41:15.591Z,1.00
2019-05-18T07:43:45.738Z,1.00
2019-05-18T07:46:16.380Z,1.00
2019-05-18T07:48:46.928Z,1.00
2019-05-18T07:51:17.436Z,1.00
2019-05-18T07:53:47.985Z,1.00
2019-05-18T07:56:18.495Z,1.00
2019-05-18T07:58:48.627Z,1.00
2019-05-18T08:01:18.785Z,1.00
2019-05-18T08:03:49.493Z,1.00
2019-05-18T08:06:20.764Z,1.00
2019-05-18T08:08:50.960Z,1.00
2019-05-18T08:11:21.073Z,1.00
2019-05-18T08:13:51.642Z,1.00
2019-05-18T08:16:21.782Z,1.00
2019-05-18T08:18:52.013Z,1.00
2019-05-18T08:21:22.214Z,1.00
2019-05-18T08:23:52.779Z,1.00
2019-05-18T08:26:24.181Z,1.00
2019-05-18T08:28:54.375Z,1.00
2019-05-18T08:31:24.589Z,1.00
2019-05-18T08:33:55.143Z,1.00
2019-05-18T08:36:25.260Z,1.00
2019-05-18T08:38:57.189Z,1.00
2019-05-18T08:41:27.715Z,1.00
2019-05-18T08:43:57.894Z,1.00
2019-05-18T08:46:28.057Z,1.00
2019-05-18T08:48:58.293Z,1.00
2019-05-18T08:51:28.398Z,1.00
2019-05-18T08:53:58.520Z,1.00
2019-05-18T08:56:28.712Z,1.00
2019-05-18T08:58:59.258Z,1.00
2019-05-18T09:01:29.549Z,1.00
2019-05-18T09:03:59.808Z,1.00
2019-05-18T09:06:30.038Z,1.00
2019-05-18T09:09:00.252Z,1.00
2019-05-18T09:11:31.972Z,1.00
2019-05-18T09:14:02.160Z,1.00
2019-05-18T09:16:32.377Z,1.00
2019-05-18T09:19:02.575Z,1.00
2019-05-18T09:21:32.715Z,1.00
2019-05-18T09:24:02.906Z,1.00
2019-05-18T09:26:33.123Z,1.00
2019-05-18T09:29:03.935Z,1.00
2019-05-18T09:31:35.433Z,1.00
2019-05-18T09:34:05.667Z,1.00
2019-05-18T09:36:36.832Z,1.00
2019-05-18T09:39:08.709Z,1.00
2019-05-18T09:41:40.577Z,1.00
2019-05-18T09:44:10.797Z,1.00
2019-05-18T09:46:41.841Z,1.00
2019-05-18T09:49:14.135Z,1.00
2019-05-18T09:51:45.442Z,1.00
2019-05-18T09:54:15.544Z,1.00
2019-05-18T09:56:45.706Z,1.00
2019-05-18T09:59:15.892Z,1.00
2019-05-18T10:01:46.004Z,1.00
2019-05-18T10:04:16.214Z,1.00
2019-05-18T10:06:46.658Z,1.00
2019-05-18T10:09:17.137Z,1.00
2019-05-18T10:11:47.682Z,1.00
2019-05-18T10:14:17.841Z,1.00
2019-05-18T10:16:48.178Z,1.00
2019-05-18T10:19:18.326Z,1.00
2019-05-18T10:21:48.466Z,1.00
2019-05-18T10:24:19.254Z,1.00
2019-05-18T10:26:49.475Z,1.00
2019-05-18T10:29:19.925Z,1.00
2019-05-18T10:31:50.065Z,1.00
2019-05-18T10:34:20.313Z,1.00
2019-05-18T10:36:50.590Z,1.00
2019-05-18T10:39:20.796Z,1.00
2019-05-18T10:41:50.885Z,1.00
2019-05-18T10:44:21.009Z,1.00
2019-05-18T10:46:51.220Z,1.00
2019-05-18T10:49:21.345Z,1.00
2019-05-18T10:51:51.778Z,1.00
2019-05-18T10:54:21.902Z,1.00
2019-05-18T10:56:52.096Z,1.00
2019-05-18T10:59:22.793Z,1.00
2019-05-18T11:01:53.068Z,1.00
2019-05-18T11:04:23.304Z,1.00
2019-05-18T11:06:53.615Z,1.00
2019-05-18T11:09:23.861Z,1.00
2019-05-18T11:11:54.183Z,1.00
2019-05-18T11:14:24.549Z,1.00
2019-05-18T11:16:54.676Z,1.00
2019-05-18T11:19:24.892Z,1.00
2019-05-18T11:21:55.589Z,1.00
2019-05-18T11:24:26.222Z,1.00
2019-05-18T11:26:56.462Z,1.00
2019-05-18T11:29:26.696Z,1.00
2019-05-18T11:31:56.916Z,1.00
2019-05-18T11:34:27.218Z,1.00
2019-05-18T11:36:57.442Z,1.00
2019-05-18T11:39:27.741Z,1.00
2019-05-18T11:41:57.913Z,1.00
2019-05-18T11:44:28.133Z,1.00
2019-05-18T11:46:58.297Z,1.00
2019-05-18T11:49:29.240Z,1.00
2019-05-18T11:51:59.441Z,1.00
2019-05-18T11:54:33.276Z,1.00
2019-05-18T11:57:03.552Z,1.00
2019-05-18T11:59:33.806Z,1.00
2019-05-18T12:02:04.199Z,1.00
2019-05-18T12:04:35.102Z,1.00
2019-05-18T12:07:05.826Z,1.00
2019-05-18T12:09:36.170Z,1.00
2019-05-18T12:12:07.954Z,1.00
2019-05-18T12:14:38.153Z,1.00
2019-05-18T12:17:08.499Z,1.00
2019-05-18T12:19:38.862Z,1.00
2019-05-18T12:22:09.410Z,1.00
2019-05-18T12:24:39.706Z,1.00
2019-05-18T12:27:10.525Z,1.00
2019-05-18T12:29:40.886Z,1.00
2019-05-18T12:32:11.359Z,1.00
2019-05-18T12:34:44.821Z,1.00
2019-05-18T12:37:22.397Z,1.00
2019-05-18T12:39:53.473Z,1.00
2019-05-18T12:42:24.106Z,1.00
2019-05-18T12:44:54.987Z,1.00
2019-05-18T12:47:25.335Z,1.00
2019-05-18T12:49:55.473Z,1.00
2019-05-18T12:52:25.717Z,1.00
2019-05-18T12:54:55.987Z,1.00
2019-05-18T12:57:26.208Z,1.00
2019-05-18T12:59:56.426Z,1.00
2019-05-18T13:02:26.910Z,1.00
2019-05-18T13:04:57.164Z,1.00
2019-05-18T13:07:27.472Z,1.00
2019-05-18T13:09:57.690Z,1.00
2019-05-18T13:12:27.891Z,1.00
2019-05-18T13:14:58.287Z,1.00
2019-05-18T13:17:28.828Z,1.00
2019-05-18T13:19:59.498Z,1.00
2019-05-18T13:22:29.702Z,1.00
2019-05-18T13:25:00.147Z,1.00
2019-05-18T13:27:38.683Z,1.00
2019-05-18T13:30:02.301Z,1.00
2019-05-18T13:32:32.606Z,1.00
2019-05-18T13:35:04.431Z,1.00
2019-05-18T13:37:34.844Z,1.00
2019-05-18T13:40:06.103Z,1.00
2019-05-18T13:42:39.937Z,1.00
2019-05-18T13:45:11.527Z,1.00
2019-05-18T13:47:41.972Z,1.00
2019-05-18T13:50:12.861Z,1.00
2019-05-18T13:52:43.193Z,1.00
2019-05-18T13:55:13.575Z,1.00
2019-05-18T13:57:44.067Z,1.00
2019-05-18T14:00:15.509Z,1.00
2019-05-18T14:02:45.899Z,1.00
2019-05-18T14:05:16.724Z,1.00
2019-05-18T14:07:46.966Z,1.00
2019-05-18T14:10:17.838Z,1.00
2019-05-18T14:12:48.075Z,1.00
2019-05-18T14:15:22.339Z,1.00
2019-05-18T14:17:50.522Z,1.00
2019-05-18T14:20:20.690Z,1.00
2019-05-18T14:22:50.944Z,1.00
2019-05-18T14:25:21.204Z,1.00
2019-05-18T14:27:51.535Z,1.00
2019-05-18T14:30:22.252Z,1.00
2019-05-18T14:32:52.466Z,1.00
2019-05-18T14:35:22.718Z,1.00
2019-05-18T14:37:54.964Z,1.00
2019-05-18T14:40:26.892Z,1.00
2019-05-18T14:42:57.089Z,1.00
2019-05-18T14:45:28.079Z,1.00
2019-05-18T14:47:58.334Z,1.00
2019-05-18T14:50:28.779Z,1.00
2019-05-18T14:52:58.948Z,1.00
2019-05-18T14:55:33.645Z,1.00
2019-05-18T14:58:01.188Z,1.00
2019-05-18T15:00:31.402Z,1.00
2019-05-18T15:03:01.696Z,1.00
2019-05-18T15:05:31.925Z,1.00
2019-05-18T15:08:02.240Z,1.00
2019-05-18T15:10:32.454Z,1.00
2019-05-18T15:13:02.564Z,1.00
2019-05-18T15:15:32.858Z,1.00
2019-05-18T15:18:03.046Z,1.00
2019-05-18T15:20:33.337Z,1.00
2019-05-18T15:23:03.489Z,1.00
2019-05-18T15:25:49.338Z,1.00
2019-05-18T15:28:05.973Z,1.00
2019-05-18T15:30:36.245Z,1.00
2019-05-18T15:33:06.467Z,1.00
2019-05-18T15:35:36.595Z,1.00
2019-05-18T15:38:06.845Z,1.00
2019-05-18T15:40:37.012Z,1.00
2019-05-18T15:43:07.160Z,1.00
2019-05-18T15:45:37.414Z,1.00
2019-05-18T15:48:09.389Z,1.00
2019-05-18T15:50:39.502Z,1.00
2019-05-18T15:53:09.887Z,1.00
2019-05-18T15:55:40.537Z,1.00
2019-05-18T15:58:11.081Z,1.00
2019-05-18T16:00:42.226Z,1.00
2019-05-18T16:03:12.575Z,1.00
2019-05-18T16:05:43.153Z,1.00
2019-05-18T16:08:13.561Z,1.00
2019-05-18T16:10:43.942Z,1.00
2019-05-18T16:13:14.530Z,1.00
2019-05-18T16:15:44.756Z,1.00
2019-05-18T16:18:15.039Z,1.00
2019-05-18T16:20:45.405Z,1.00
2019-05-18T16:23:15.557Z,1.00
2019-05-18T16:25:45.885Z,1.00
2019-05-18T16:28:16.094Z,1.00
2019-05-18T16:30:46.294Z,1.00
2019-05-18T16:33:16.550Z,1.00
2019-05-18T16:35:46.716Z,1.00
2019-05-18T16:38:18.705Z,1.00
2019-05-18T16:40:50.216Z,1.00
2019-05-18T16:43:20.376Z,1.00
2019-05-18T16:45:50.504Z,1.00
2019-05-18T16:48:20.930Z,1.00
2019-05-18T16:50:51.449Z,1.00
2019-05-18T16:53:21.958Z,1.00
2019-05-18T16:55:53.914Z,1.00
2019-05-18T16:58:24.177Z,1.00
2019-05-18T17:00:54.640Z,1.00
2019-05-18T17:03:38.432Z,1.00
2019-05-18T17:06:16.399Z,1.00
2019-05-18T17:09:08.407Z,1.00
2019-05-18T17:12:08.461Z,1.00
2019-05-18T17:14:49.784Z,1.00
2019-05-18T17:17:35.239Z,1.00
2019-05-18T17:20:09.288Z,1.00
2019-05-18T17:22:48.381Z,1.00
2019-05-18T17:25:29.806Z,1.00
2019-05-18T17:28:07.390Z,1.00
2019-05-18T17:31:01.747Z,1.00
2019-05-18T17:33:52.478Z,1.00
2019-05-18T17:36:22.710Z,1.00
2019-05-18T17:38:52.848Z,1.00
2019-05-18T17:41:23.328Z,1.00
2019-05-18T17:43:53.638Z,1.00
2019-05-18T17:46:23.782Z,1.00
2019-05-18T17:48:53.981Z,1.00
2019-05-18T17:51:24.104Z,1.00
2019-05-18T17:53:54.267Z,1.00
2019-05-18T17:56:24.378Z,1.00
2019-05-18T17:58:54.493Z,1.00
2019-05-18T18:01:24.888Z,1.00
2019-05-18T18:03:55.144Z,1.00
2019-05-18T18:06:25.281Z,1.00
2019-05-18T18:08:55.529Z,1.00
2019-05-18T18:11:25.949Z,1.00
2019-05-18T18:13:56.081Z,1.00
2019-05-18T18:16:26.569Z,1.00
2019-05-18T18:18:57.536Z,1.00
2019-05-18T18:21:27.764Z,1.00
2019-05-18T18:23:57.961Z,1.00
2019-05-18T18:26:28.103Z,1.00
2019-05-18T18:28:58.247Z,1.00
2019-05-18T18:31:29.944Z,1.00
2019-05-18T18:34:00.186Z,1.00
2019-05-18T18:36:30.345Z,1.00
2019-05-18T18:39:00.573Z,1.00
2019-05-18T18:41:30.981Z,1.00
2019-05-18T18:44:01.169Z,1.00
2019-05-18T18:46:31.608Z,1.00
2019-05-18T18:49:01.795Z,1.00
2019-05-18T18:51:32.019Z,1.00
2019-05-18T18:54:02.358Z,1.00
2019-05-18T18:56:32.584Z,1.00
2019-05-18T18:59:04.953Z,1.00
2019-05-18T19:01:36.674Z,1.00
2019-05-18T19:04:07.037Z,1.00
2019-05-18T19:06:38.120Z,1.00
2019-05-18T19:09:08.674Z,1.00
2019-05-18T19:11:39.076Z,1.00
2019-05-18T19:14:09.396Z,1.00
2019-05-18T19:16:39.722Z,1.00
2019-05-18T19:19:10.510Z,99.90
2019-05-18T19:21:40.677Z,61.80
2019-05-18T19:24:10.898Z,99.90
2019-05-18T19:26:41.162Z,88.00
2019-05-18T19:29:11.405Z,99.90
2019-05-18T19:31:41.656Z,99.90
2019-05-18T19:34:11.915Z,99.90
2019-05-18T19:36:42.082Z,99.90
2019-05-18T19:39:12.401Z,99.90
2019-05-18T19:41:42.789Z,99.90
2019-05-18T19:44:13.096Z,99.90
2019-05-18T19:46:44.720Z,99.90
2019-05-18T19:49:15.391Z,99.90
2019-05-18T19:51:45.599Z,99.90
2019-05-18T19:54:15.886Z,99.90
2019-05-18T19:56:46.455Z,99.90
2019-05-18T19:59:17.082Z,99.90
2019-05-18T20:01:47.555Z,1.00
2019-05-18T20:04:17.877Z,1.00
2019-05-18T20:06:48.418Z,1.00
2019-05-18T20:09:19.020Z,1.00
2019-05-18T20:11:49.244Z,1.00
2019-05-18T20:14:19.949Z,1.00
2019-05-18T20:16:50.285Z,1.00
2019-05-18T20:19:20.577Z,1.00
2019-05-18T20:21:50.751Z,1.00
2019-05-18T20:24:21.361Z,1.00
2019-05-18T20:26:51.555Z,1.00
2019-05-18T20:29:21.823Z,1.00
2019-05-18T20:31:52.046Z,1.00
2019-05-18T20:34:22.307Z,1.00
2019-05-18T20:36:52.912Z,1.00
2019-05-18T20:39:23.533Z,46.20
2019-05-18T20:41:53.814Z,96.00
2019-05-18T20:44:24.003Z,99.90
2019-05-18T20:46:54.185Z,99.90
2019-05-18T20:49:24.676Z,99.90
2019-05-18T20:51:54.946Z,99.90
2019-05-18T20:54:25.497Z,99.90
2019-05-18T20:56:56.218Z,1.00
2019-05-18T20:59:26.516Z,1.00
2019-05-18T21:01:56.889Z,1.00
2019-05-18T21:04:27.069Z,1.00
2019-05-18T21:06:57.268Z,1.00
2019-05-18T21:09:27.870Z,24.90
2019-05-18T21:11:58.745Z,1.00
2019-05-18T21:14:30.314Z,82.00
2019-05-18T21:17:01.156Z,1.00
2019-05-18T21:19:32.058Z,99.90
2019-05-18T21:22:02.648Z,61.60
2019-05-18T21:24:33.624Z,86.40
2019-05-18T21:27:05.690Z,99.90
2019-05-18T21:29:36.699Z,1.00
2019-05-18T21:32:07.836Z,16.80
2019-05-18T21:34:38.057Z,1.00
2019-05-18T21:37:08.272Z,1.00
2019-05-18T21:39:38.949Z,99.90
2019-05-18T21:42:09.171Z,1.00
2019-05-18T21:44:39.473Z,1.00
2019-05-18T21:47:09.610Z,99.90
2019-05-18T21:49:39.864Z,1.00
2019-05-18T21:52:10.011Z,1.00
2019-05-18T21:54:40.208Z,1.00
2019-05-18T21:57:10.400Z,54.20
2019-05-18T21:59:40.938Z,99.90
2019-05-18T22:02:11.366Z,1.00
2019-05-18T22:04:41.986Z,99.90
2019-05-18T22:07:12.190Z,99.90
2019-05-18T22:09:42.407Z,99.90
2019-05-18T22:12:12.814Z,99.90
2019-05-18T22:14:43.072Z,1.00
2019-05-18T22:17:13.263Z,1.00
2019-05-18T22:19:43.567Z,1.00
2019-05-18T22:22:13.754Z,1.00
2019-05-18T22:24:44.037Z,1.00
2019-05-18T22:27:15.593Z,1.00
2019-05-18T22:29:45.831Z,1.00
2019-05-18T22:32:16.079Z,1.00
2019-05-18T22:34:46.345Z,1.00
2019-05-18T22:37:16.533Z,1.00
2019-05-18T22:39:46.709Z,99.90
2019-05-18T22:42:18.043Z,99.90
2019-05-18T22:44:48.290Z,1.00
2019-05-18T22:47:19.478Z,99.90
2019-05-18T22:49:50.644Z,99.90
2019-05-18T22:52:21.005Z,99.90
2019-05-18T22:54:51.651Z,1.00
2019-05-18T22:57:21.836Z,1.00
2019-05-18T22:59:52.027Z,1.00
2019-05-18T23:02:22.264Z,1.00
2019-05-18T23:04:52.837Z,1.00
2019-05-18T23:07:23.403Z,99.90
2019-05-18T23:09:53.898Z,99.90
2019-05-18T23:12:24.093Z,99.90
2019-05-18T23:14:54.363Z,78.50
2019-05-18T23:17:24.556Z,99.90
2019-05-18T23:19:54.733Z,99.90
2019-05-18T23:22:25.324Z,1.00
2019-05-18T23:24:55.470Z,1.00
2019-05-18T23:27:26.066Z,1.00
2019-05-18T23:29:56.313Z,1.00
2019-05-18T23:32:26.576Z,1.00
2019-05-18T23:34:57.222Z,1.00
2019-05-18T23:37:27.840Z,1.00
2019-05-18T23:39:58.041Z,1.00
2019-05-18T23:42:28.475Z,1.00
2019-05-18T23:44:58.746Z,1.00
2019-05-18T23:47:29.480Z,1.00
2019-05-18T23:49:59.780Z,1.00
2019-05-18T23:52:30.113Z,1.00
2019-05-18T23:55:00.364Z,1.00
2019-05-18T23:57:30.557Z,1.00
